Time;durP1;ratioP1;P1;durP2;ratioP2;P2;SDS_P1;SDS_P2;PMS_P1;PMS_P2;Temp;Humidity;BMP_temperature;BMP_pressure;BME280_temperature;BME280_humidity;BME280_pressure;Samples;Min_cycle;Max_cycle;Signal;HPM_P1;HPM_P2
2022/04/25 00:00:01;;;;;;;;;;;26.40;40.30;;;;;;5077101;28;1023;-42
2022/04/25 00:02:29;;;;;;;;;;;26.40;40.30;;;;;;5076108;28;973;-42
2022/04/25 00:04:56;;;;;;;;;;;26.40;40.20;;;;;;5076742;28;1061;-39
2022/04/25 00:07:24;;;;;;;;;;;26.40;40.30;;;;;;5076080;28;961;-42
2022/04/25 00:09:51;;;;;;;;;;;26.40;40.40;;;;;;5076720;28;1001;-39
2022/04/25 00:12:18;;;;;;;;;;;26.50;40.40;;;;;;5077612;28;997;-40
2022/04/25 00:14:44;;;;;;;;;;;26.40;40.40;;;;;;5076361;28;1902;-40
2022/04/25 00:17:11;;;;;;;;;;;26.40;40.40;;;;;;5076780;28;737;-42
2022/04/25 00:19:38;;;;;;;;;;;26.40;40.50;;;;;;5077024;28;941;-42
2022/04/25 00:22:05;;;;;;;;;;;26.40;40.50;;;;;;5075952;28;973;-43
2022/04/25 00:24:33;;;;;;;;;;;26.40;40.50;;;;;;5076417;28;1056;-42
2022/04/25 00:27:00;;;;;;;;;;;26.40;40.50;;;;;;5075106;28;1000;-46
2022/04/25 00:29:27;;;;;;;;;;;26.40;40.60;;;;;;5076606;28;956;-43
2022/04/25 00:31:53;;;;;;;;;;;26.40;40.60;;;;;;5075660;28;1008;-43
2022/04/25 00:34:20;;;;;;;;;;;26.40;40.60;;;;;;5075307;28;1911;-43
2022/04/25 00:36:47;;;;;;;;;;;26.40;40.60;;;;;;5075533;28;994;-44
2022/04/25 00:39:14;;;;;;;;;;;26.40;40.60;;;;;;5076103;28;1040;-44
2022/04/25 00:41:42;;;;;;;;;;;26.40;40.60;;;;;;5076081;28;941;-45
2022/04/25 00:44:08;;;;;;;;;;;26.40;40.60;;;;;;5075492;28;973;-44
2022/04/25 00:46:36;;;;;;;;;;;26.40;40.70;;;;;;5075299;28;941;-43
2022/04/25 00:49:03;;;;;;;;;;;26.40;40.60;;;;;;5075962;28;992;-43
2022/04/25 00:51:29;;;;;;;;;;;26.40;40.60;;;;;;5076727;28;936;-39
2022/04/25 00:53:56;;;;;;;;;;;26.40;40.60;;;;;;5075472;28;1903;-41
2022/04/25 00:56:24;;;;;;;;;;;26.40;40.60;;;;;;5077270;28;1924;-40
2022/04/25 00:58:52;;;;;;;;;;;26.40;40.60;;;;;;5076354;28;949;-41
2022/04/25 01:01:19;;;;;;;;;;;26.40;40.60;;;;;;5075152;28;969;-39
2022/04/25 01:03:46;;;;;;;;;;;26.40;40.60;;;;;;5075449;28;1011;-40
2022/04/25 01:06:13;;;;;;;;;;;26.40;40.60;;;;;;5075873;28;1020;-42
2022/04/25 01:08:39;;;;;;;;;;;26.40;40.60;;;;;;5076956;28;1003;-39
2022/04/25 01:11:06;;;;;;;;;;;26.40;40.60;;;;;;5076030;28;932;-42
2022/04/25 01:13:33;;;;;;;;;;;26.40;40.60;;;;;;5076303;28;1016;-41
2022/04/25 01:16:01;;;;;;;;;;;26.40;40.60;;;;;;5075997;28;1958;-40
2022/04/25 01:18:28;;;;;;;;;;;26.40;40.60;;;;;;5076179;28;973;-42
2022/04/25 01:20:56;;;;;;;;;;;26.40;40.60;;;;;;5076057;28;943;-41
2022/04/25 01:28:53;;;;;;;;;;;26.40;40.70;;;;;;5076356;28;987;-42
2022/04/25 01:31:20;;;;;;;;;;;26.30;40.70;;;;;;5075480;28;1012;-42
2022/04/25 01:33:47;;;;;;;;;;;26.30;40.70;;;;;;5076855;28;1969;-41
2022/04/25 01:36:14;;;;;;;;;;;26.40;40.70;;;;;;5076971;28;936;-43
2022/04/25 01:38:42;;;;;;;;;;;26.30;40.70;;;;;;5076093;28;960;-40
2022/04/25 01:41:09;;;;;;;;;;;26.40;40.80;;;;;;5075659;28;1256;-42
2022/04/25 01:43:37;;;;;;;;;;;26.40;40.70;;;;;;5075304;28;996;-40
2022/04/25 01:46:04;;;;;;;;;;;26.30;40.60;;;;;;5075762;28;902;-38
2022/04/25 01:48:31;;;;;;;;;;;26.40;40.60;;;;;;5075932;28;1144;-45
2022/04/25 01:50:58;;;;;;;;;;;26.40;40.60;;;;;;5076595;28;989;-45
2022/04/25 01:53:24;;;;;;;;;;;26.40;40.60;;;;;;5076337;28;964;-45
2022/04/25 01:55:52;;;;;;;;;;;26.40;40.60;;;;;;5076539;28;1983;-45
2022/04/25 01:58:19;;;;;;;;;;;26.30;40.60;;;;;;5075594;28;1420;-45
2022/04/25 02:00:46;;;;;;;;;;;26.30;40.60;;;;;;5074784;28;961;-46
2022/04/25 02:03:13;;;;;;;;;;;26.30;40.60;;;;;;5073746;28;1015;-45
2022/04/25 02:05:39;;;;;;;;;;;26.30;40.60;;;;;;5074206;28;937;-45
2022/04/25 02:11:21;;;;;;;;;;;26.30;40.60;;;;;;5074106;28;610;-45
2022/04/25 02:13:47;;;;;;;;;;;26.30;40.60;;;;;;5073856;28;937;-46
2022/04/25 02:16:15;;;;;;;;;;;26.30;40.70;;;;;;5073493;28;1905;-45
2022/04/25 02:18:42;;;;;;;;;;;26.30;40.70;;;;;;5073279;28;1029;-46
2022/04/25 02:21:08;;;;;;;;;;;26.30;40.70;;;;;;5074342;28;1056;-45
2022/04/25 02:23:35;;;;;;;;;;;26.30;40.70;;;;;;5075132;28;1009;-45
2022/04/25 02:26:02;;;;;;;;;;;26.30;40.70;;;;;;5072651;28;929;-45
2022/04/25 02:28:30;;;;;;;;;;;26.30;40.70;;;;;;5074609;28;1005;-45
2022/04/25 02:30:57;;;;;;;;;;;26.30;40.70;;;;;;5073598;28;1106;-45
2022/04/25 02:33:25;;;;;;;;;;;26.30;40.80;;;;;;5074745;28;921;-45
2022/04/25 02:35:51;;;;;;;;;;;26.30;40.70;;;;;;5073996;28;1975;-45
2022/04/25 02:38:18;;;;;;;;;;;26.30;40.70;;;;;;5073811;28;935;-45
2022/04/25 02:40:45;;;;;;;;;;;26.30;41.00;;;;;;5075058;28;1107;-46
2022/04/25 02:43:12;;;;;;;;;;;26.30;40.70;;;;;;5075227;28;1197;-45
2022/04/25 02:45:40;;;;;;;;;;;26.30;40.70;;;;;;5074859;28;949;-45
2022/04/25 02:48:07;;;;;;;;;;;26.20;40.70;;;;;;5074475;28;1009;-46
2022/04/25 02:50:33;;;;;;;;;;;26.30;40.70;;;;;;5074441;28;1016;-45
2022/04/25 02:53:00;;;;;;;;;;;26.30;40.70;;;;;;5074574;28;994;-45
2022/04/25 02:55:27;;;;;;;;;;;26.30;40.60;;;;;;5075011;28;1918;-45
2022/04/25 02:57:54;;;;;;;;;;;26.20;40.60;;;;;;5075160;28;897;-46
2022/04/25 03:00:21;;;;;;;;;;;26.30;40.60;;;;;;5074412;28;993;-45
2022/04/25 03:02:49;;;;;;;;;;;26.20;40.50;;;;;;5074081;28;1003;-45
2022/04/25 03:05:15;;;;;;;;;;;26.30;40.70;;;;;;5074329;28;912;-45
2022/04/25 03:07:42;;;;;;;;;;;26.20;40.60;;;;;;5073640;28;999;-46
2022/04/25 03:10:09;;;;;;;;;;;26.20;40.60;;;;;;5074592;28;928;-46
2022/04/25 03:12:38;;;;;;;;;;;26.20;40.50;;;;;;5074293;28;1832;-45
2022/04/25 03:15:05;;;;;;;;;;;26.20;40.60;;;;;;5074989;28;1987;-45
2022/04/25 03:17:32;;;;;;;;;;;26.20;40.60;;;;;;5073827;28;845;-46
2022/04/25 03:20:00;;;;;;;;;;;26.20;40.50;;;;;;5073930;28;987;-45
2022/04/25 03:22:27;;;;;;;;;;;26.20;40.50;;;;;;5074931;28;957;-46
2022/04/25 03:24:54;;;;;;;;;;;26.20;40.50;;;;;;5074730;28;1034;-46
2022/04/25 03:27:20;;;;;;;;;;;26.20;40.50;;;;;;5074950;28;1001;-46
2022/04/25 03:29:47;;;;;;;;;;;26.20;40.50;;;;;;5077219;28;985;-45
2022/04/25 03:32:15;;;;;;;;;;;26.20;40.50;;;;;;5077181;28;977;-46
2022/04/25 03:34:42;;;;;;;;;;;26.20;40.50;;;;;;5077372;28;1988;-45
2022/04/25 03:37:11;;;;;;;;;;;26.20;40.50;;;;;;5078690;28;979;-45
2022/04/25 03:39:38;;;;;;;;;;;26.20;40.50;;;;;;5079430;28;1227;-45
2022/04/25 03:42:05;;;;;;;;;;;26.20;40.60;;;;;;5077526;28;1011;-45
2022/04/25 03:44:32;;;;;;;;;;;26.20;40.60;;;;;;5077467;28;1036;-45
2022/04/25 03:46:59;;;;;;;;;;;26.20;40.50;;;;;;5075471;28;1562;-53
2022/04/25 03:49:25;;;;;;;;;;;26.20;40.50;;;;;;5077521;28;1046;-45
2022/04/25 03:51:52;;;;;;;;;;;26.20;40.60;;;;;;5076406;28;877;-45
2022/04/25 03:57:13;;;;;;;;;;;26.20;40.50;;;;;;5075150;28;1474;-45
2022/04/25 03:59:39;;;;;;;;;;;26.20;40.50;;;;;;5077438;28;932;-45
2022/04/25 04:02:07;;;;;;;;;;;26.20;40.60;;;;;;5075688;28;1454;-45
2022/04/25 04:04:33;;;;;;;;;;;26.10;40.50;;;;;;5074850;28;1461;-46
2022/04/25 04:07:02;;;;;;;;;;;26.20;40.50;;;;;;5076067;28;1461;-45
2022/04/25 04:09:49;;;;;;;;;;;26.10;40.50;;;;;;5077501;28;1032;-45
2022/04/25 04:12:16;;;;;;;;;;;26.10;40.50;;;;;;5075915;28;1466;-39
2022/04/25 04:14:43;;;;;;;;;;;26.20;40.60;;;;;;5077727;28;1898;-42
2022/04/25 04:17:09;;;;;;;;;;;26.20;40.60;;;;;;5075797;28;1437;-42
2022/04/25 04:19:37;;;;;;;;;;;26.20;40.60;;;;;;5077237;28;1007;-42
2022/04/25 04:22:03;;;;;;;;;;;26.10;40.60;;;;;;5074565;28;1527;-42
2022/04/25 04:24:34;;;;;;;;;;;26.10;40.70;;;;;;5074739;28;1337;-42
2022/04/25 04:27:02;;;;;;;;;;;26.10;40.50;;;;;;5074330;28;981;-43
2022/04/25 04:29:30;;;;;;;;;;;26.20;40.60;;;;;;5074704;28;1012;-43
2022/04/25 04:31:57;;;;;;;;;;;26.10;40.50;;;;;;5074848;28;993;-42
2022/04/25 04:34:24;;;;;;;;;;;26.10;40.50;;;;;;5074483;28;995;-39
2022/04/25 04:36:50;;;;;;;;;;;26.10;40.60;;;;;;5074493;28;1999;-43
2022/04/25 04:39:17;;;;;;;;;;;26.10;40.50;;;;;;5072816;28;1028;-43
2022/04/25 04:41:46;;;;;;;;;;;26.10;40.50;;;;;;5073952;28;908;-47
2022/04/25 04:44:13;;;;;;;;;;;26.10;40.50;;;;;;5074625;28;1244;-46
2022/04/25 04:46:40;;;;;;;;;;;26.10;40.50;;;;;;5074098;28;1046;-43
2022/04/25 04:49:07;;;;;;;;;;;26.10;40.60;;;;;;5073364;28;994;-42
2022/04/25 04:51:34;;;;;;;;;;;26.10;40.60;;;;;;5074081;28;952;-42
2022/04/25 04:54:02;;;;;;;;;;;26.10;40.60;;;;;;5073491;28;917;-42
2022/04/25 04:56:29;;;;;;;;;;;26.10;40.60;;;;;;5072982;28;1985;-39
2022/04/25 04:58:58;;;;;;;;;;;26.10;40.60;;;;;;5073760;28;1007;-42
2022/04/25 05:01:25;;;;;;;;;;;26.10;40.50;;;;;;5071718;28;826;-40
2022/04/25 05:03:52;;;;;;;;;;;26.10;40.60;;;;;;5069304;28;1023;-46
2022/04/25 05:06:18;;;;;;;;;;;26.10;40.50;;;;;;5070890;28;1043;-46
2022/04/25 05:08:45;;;;;;;;;;;26.10;40.50;;;;;;5070781;28;1778;-46
2022/04/25 05:11:12;;;;;;;;;;;26.10;40.60;;;;;;5070155;28;976;-46
2022/04/25 05:13:39;;;;;;;;;;;26.10;40.70;;;;;;5069410;28;1840;-46
2022/04/25 05:16:07;;;;;;;;;;;26.10;40.60;;;;;;5068424;28;1882;-46
2022/04/25 05:18:34;;;;;;;;;;;26.10;40.60;;;;;;5067870;28;1028;-45
2022/04/25 05:21:01;;;;;;;;;;;26.10;40.70;;;;;;5065577;28;1844;-45
2022/04/25 05:23:28;;;;;;;;;;;26.10;40.70;;;;;;5064579;28;990;-46
2022/04/25 05:25:54;;;;;;;;;;;26.10;40.70;;;;;;5065074;28;838;-44
2022/04/25 05:28:21;;;;;;;;;;;26.10;40.70;;;;;;5063457;28;916;-45
2022/04/25 05:30:48;;;;;;;;;;;26.10;40.70;;;;;;5064123;28;857;-45
2022/04/25 05:33:17;;;;;;;;;;;26.10;40.70;;;;;;5063628;28;1036;-43
2022/04/25 05:35:44;;;;;;;;;;;26.10;41.90;;;;;;5064449;28;1898;-43
2022/04/25 05:38:12;;;;;;;;;;;26.10;40.70;;;;;;5068439;28;995;-44
2022/04/25 05:40:38;;;;;;;;;;;26.10;40.80;;;;;;5066099;28;1011;-43
2022/04/25 05:43:06;;;;;;;;;;;26.10;40.70;;;;;;5066119;28;884;-43
2022/04/25 05:45:33;;;;;;;;;;;26.10;40.70;;;;;;5064861;28;854;-43
2022/04/25 05:48:00;;;;;;;;;;;26.00;40.70;;;;;;5066581;28;971;-44
2022/04/25 05:53:14;;;;;;;;;;;26.10;40.80;;;;;;5066043;28;879;-44
2022/04/25 05:55:41;;;;;;;;;;;26.10;40.70;;;;;;5068020;28;1898;-46
2022/04/25 05:58:08;;;;;;;;;;;26.10;40.80;;;;;;5067170;28;944;-44
2022/04/25 06:00:35;;;;;;;;;;;26.10;40.80;;;;;;5067319;28;1013;-44
2022/04/25 06:03:02;;;;;;;;;;;26.10;40.80;;;;;;5066556;28;985;-46
2022/04/25 06:05:30;;;;;;;;;;;26.10;40.70;;;;;;5068148;28;940;-44
2022/04/25 06:07:57;;;;;;;;;;;26.10;40.80;;;;;;5068689;28;1013;-44
2022/04/25 06:10:25;;;;;;;;;;;26.00;40.80;;;;;;5067348;28;917;-44
2022/04/25 06:12:52;;;;;;;;;;;26.10;40.90;;;;;;5069238;28;984;-44
2022/04/25 06:15:21;;;;;;;;;;;26.00;40.80;;;;;;5067382;28;1989;-44
2022/04/25 06:17:48;;;;;;;;;;;26.10;40.90;;;;;;5067243;28;1028;-44
2022/04/25 06:20:14;;;;;;;;;;;26.10;40.90;;;;;;5067236;28;948;-44
2022/04/25 06:22:51;;;;;;;;;;;26.10;41.00;;;;;;5068779;28;1012;-44
2022/04/25 06:25:17;;;;;;;;;;;26.10;40.90;;;;;;5068754;28;981;-45
2022/04/25 06:27:44;;;;;;;;;;;26.10;41.00;;;;;;5067082;28;1003;-44
2022/04/25 06:30:12;;;;;;;;;;;26.00;40.90;;;;;;5066715;28;903;-45
2022/04/25 06:32:39;;;;;;;;;;;26.10;41.00;;;;;;5066394;28;937;-45
2022/04/25 06:35:08;;;;;;;;;;;26.00;40.90;;;;;;5068829;28;992;-44
2022/04/25 06:37:34;;;;;;;;;;;26.10;41.00;;;;;;5068086;28;1898;-44
2022/04/25 06:40:02;;;;;;;;;;;26.00;40.90;;;;;;5067518;28;1033;-44
2022/04/25 06:42:29;;;;;;;;;;;26.00;40.90;;;;;;5068347;28;994;-44
2022/04/25 06:44:56;;;;;;;;;;;26.00;41.00;;;;;;5069356;28;1134;-44
2022/04/25 06:47:23;;;;;;;;;;;26.10;41.00;;;;;;5068203;28;904;-44
2022/04/25 06:49:49;;;;;;;;;;;26.00;40.90;;;;;;5068665;28;913;-43
2022/04/25 06:52:16;;;;;;;;;;;26.00;41.00;;;;;;5068053;28;972;-46
2022/04/25 06:54:43;;;;;;;;;;;26.00;41.00;;;;;;5066863;28;1012;-45
2022/04/25 06:57:11;;;;;;;;;;;26.10;41.00;;;;;;5067698;28;1902;-45
2022/04/25 06:59:38;;;;;;;;;;;26.00;41.00;;;;;;5068448;28;937;-46
2022/04/25 07:02:05;;;;;;;;;;;26.00;41.10;;;;;;5068006;28;869;-45
2022/04/25 07:04:31;;;;;;;;;;;26.00;41.00;;;;;;5070650;28;991;-45
2022/04/25 07:06:58;;;;;;;;;;;26.00;41.00;;;;;;5071277;28;1028;-45
2022/04/25 07:09:25;;;;;;;;;;;26.00;41.10;;;;;;5071029;28;1245;-45
2022/04/25 07:11:52;;;;;;;;;;;26.00;41.00;;;;;;5070503;28;1074;-45
2022/04/25 07:14:21;;;;;;;;;;;26.00;41.10;;;;;;5071483;28;1284;-45
2022/04/25 07:16:49;;;;;;;;;;;26.00;41.00;;;;;;5071208;28;1976;-45
2022/04/25 07:19:15;;;;;;;;;;;26.10;41.10;;;;;;5070928;28;988;-45
2022/04/25 07:29:57;;;;;;;;;;;26.00;41.10;;;;;;5069506;28;980;-45
2022/04/25 07:32:24;;;;;;;;;;;26.00;41.20;;;;;;5068754;28;1004;-45
2022/04/25 07:34:50;;;;;;;;;;;26.00;41.20;;;;;;5068092;28;936;-45
2022/04/25 07:37:18;;;;;;;;;;;26.00;41.20;;;;;;5069430;28;1906;-45
2022/04/25 07:39:45;;;;;;;;;;;26.00;41.30;;;;;;5068691;28;1123;-46
2022/04/25 07:42:15;;;;;;;;;;;26.00;41.30;;;;;;5069020;28;889;-48
2022/04/25 07:44:42;;;;;;;;;;;26.00;41.30;;;;;;5069054;28;1032;-45
2022/04/25 07:47:10;;;;;;;;;;;26.00;41.30;;;;;;5068502;28;1059;-45
2022/04/25 07:49:38;;;;;;;;;;;26.00;41.30;;;;;;5067700;28;976;-46
2022/04/25 07:52:05;;;;;;;;;;;26.00;41.30;;;;;;5068437;28;925;-45
2022/04/25 07:54:32;;;;;;;;;;;26.00;41.30;;;;;;5067902;28;1014;-45
2022/04/25 07:56:58;;;;;;;;;;;26.00;41.20;;;;;;5067979;28;1902;-45
2022/04/25 07:59:26;;;;;;;;;;;26.00;41.30;;;;;;5068880;28;1027;-46
2022/04/25 08:01:53;;;;;;;;;;;26.00;41.30;;;;;;5067189;28;940;-46
2022/04/25 08:04:21;;;;;;;;;;;26.00;41.30;;;;;;5065701;28;1085;-46
2022/04/25 08:06:48;;;;;;;;;;;26.00;41.30;;;;;;5069286;28;945;-45
2022/04/25 08:09:15;;;;;;;;;;;26.00;41.30;;;;;;5071316;28;1358;-45
2022/04/25 08:11:42;;;;;;;;;;;26.00;41.30;;;;;;5069771;28;989;-46
2022/04/25 08:19:39;;;;;;;;;;;26.00;41.30;;;;;;5071584;28;1000;-43
2022/04/25 08:22:07;;;;;;;;;;;25.90;41.30;;;;;;5070098;28;850;-44
2022/04/25 08:24:36;;;;;;;;;;;26.00;41.30;;;;;;5072944;28;901;-44
2022/04/25 08:27:03;;;;;;;;;;;25.90;41.40;;;;;;5070332;28;1000;-46
2022/04/25 08:29:31;;;;;;;;;;;25.90;41.40;;;;;;5070110;28;959;-42
2022/04/25 08:31:58;;;;;;;;;;;25.90;41.40;;;;;;5069257;28;1017;-45
2022/04/25 08:34:25;;;;;;;;;;;25.90;41.40;;;;;;5070161;28;1020;-44
2022/04/25 08:36:54;;;;;;;;;;;26.00;41.50;;;;;;5069415;28;1875;-44
2022/04/25 08:39:20;;;;;;;;;;;26.00;41.60;;;;;;5069666;28;1037;-44
2022/04/25 08:41:48;;;;;;;;;;;26.00;41.50;;;;;;5070721;28;1012;-42
2022/04/25 08:44:16;;;;;;;;;;;26.00;41.50;;;;;;5069813;28;1016;-44
2022/04/25 08:46:44;;;;;;;;;;;26.00;41.60;;;;;;5071106;28;1000;-45
2022/04/25 08:49:13;;;;;;;;;;;26.00;41.60;;;;;;5070109;28;984;-41
2022/04/25 08:51:41;;;;;;;;;;;26.00;41.60;;;;;;5069959;28;885;-45
2022/04/25 08:54:09;;;;;;;;;;;26.00;41.60;;;;;;5071157;28;901;-40
2022/04/25 08:56:36;;;;;;;;;;;26.00;41.60;;;;;;5070944;28;1990;-43
2022/04/25 08:59:04;;;;;;;;;;;26.00;41.60;;;;;;5069311;28;1027;-44
2022/04/25 09:01:32;;;;;;;;;;;26.00;41.60;;;;;;5069276;28;762;-44
2022/04/25 09:03:59;;;;;;;;;;;26.00;41.60;;;;;;5065003;28;952;-41
2022/04/25 09:06:26;;;;;;;;;;;26.00;41.60;;;;;;5067192;28;900;-46
2022/04/25 09:08:53;;;;;;;;;;;26.00;41.60;;;;;;5065772;28;924;-47
2022/04/25 09:14:05;;;;;;;;;;;26.00;41.70;;;;;;5066954;28;949;-41
2022/04/25 09:16:32;;;;;;;;;;;26.00;41.70;;;;;;5064677;28;1883;-44
2022/04/25 09:18:59;;;;;;;;;;;26.00;41.70;;;;;;5066894;28;900;-43
2022/04/25 09:21:25;;;;;;;;;;;26.00;41.60;;;;;;5066898;28;968;-44
2022/04/25 09:23:53;;;;;;;;;;;26.00;41.60;;;;;;5067565;28;940;-44
2022/04/25 09:26:22;;;;;;;;;;;26.00;41.60;;;;;;5065253;28;1060;-45
2022/04/25 09:28:49;;;;;;;;;;;26.00;41.50;;;;;;5066621;28;1237;-43
2022/04/25 09:31:16;;;;;;;;;;;26.00;41.40;;;;;;5066034;28;874;-45
2022/04/25 09:33:43;;;;;;;;;;;26.10;41.30;;;;;;5065047;28;1004;-42
2022/04/25 09:36:10;;;;;;;;;;;26.00;41.30;;;;;;5065326;28;1016;-42
2022/04/25 09:38:37;;;;;;;;;;;26.00;41.30;;;;;;5065599;28;1891;-42
2022/04/25 09:41:06;;;;;;;;;;;26.00;41.20;;;;;;5065970;28;1053;-43
2022/04/25 09:43:34;;;;;;;;;;;26.10;41.20;;;;;;5067920;28;985;-44
2022/04/25 09:46:02;;;;;;;;;;;26.00;41.20;;;;;;5068128;28;1119;-42
2022/04/25 09:48:29;;;;;;;;;;;26.00;41.20;;;;;;5064265;28;908;-42
2022/04/25 09:50:59;;;;;;;;;;;26.00;41.20;;;;;;5064112;28;924;-43
2022/04/25 09:53:39;;;;;;;;;;;26.10;41.10;;;;;;5063294;28;996;-45
2022/04/25 09:56:10;;;;;;;;;;;26.10;41.10;;;;;;5064147;28;882;-44
2022/04/25 09:58:40;;;;;;;;;;;26.10;41.00;;;;;;5064806;28;1957;-44
2022/04/25 10:01:11;;;;;;;;;;;26.10;41.00;;;;;;5065421;28;841;-44
2022/04/25 10:03:38;;;;;;;;;;;26.10;40.90;;;;;;5064894;28;981;-45
2022/04/25 10:06:05;;;;;;;;;;;26.10;41.00;;;;;;5065176;28;1912;-44
2022/04/25 10:08:34;;;;;;;;;;;26.10;40.80;;;;;;5065173;28;1567;-42
2022/04/25 10:11:02;;;;;;;;;;;26.10;40.80;;;;;;5063832;28;897;-43
2022/04/25 10:13:31;;;;;;;;;;;26.20;40.90;;;;;;5064547;28;994;-40
2022/04/25 10:16:00;;;;;;;;;;;26.10;40.70;;;;;;5064846;28;909;-39
2022/04/25 10:18:27;;;;;;;;;;;26.10;40.80;;;;;;5065693;28;1976;-38
2022/04/25 10:20:54;;;;;;;;;;;26.10;40.80;;;;;;5066572;28;945;-44
2022/04/25 10:23:21;;;;;;;;;;;26.10;40.70;;;;;;5065635;28;1065;-43
2022/04/25 10:25:49;;;;;;;;;;;26.10;40.60;;;;;;5065682;28;961;-44
2022/04/25 10:28:18;;;;;;;;;;;26.10;40.70;;;;;;5066546;28;981;-44
2022/04/25 10:30:46;;;;;;;;;;;26.10;40.70;;;;;;5067225;28;940;-44
2022/04/25 10:33:16;;;;;;;;;;;26.10;40.70;;;;;;5065662;28;1032;-44
2022/04/25 10:35:43;;;;;;;;;;;26.10;40.50;;;;;;5068549;28;1020;-44
2022/04/25 10:38:47;;;;;;;;;;;26.10;40.50;;;;;;5071657;28;1906;-40
2022/04/25 10:44:49;;;;;;;;;;;26.10;40.40;;;;;;5072115;28;881;-42
2022/04/25 10:47:17;;;;;;;;;;;26.10;40.50;;;;;;5068188;28;989;-45
2022/04/25 10:49:46;;;;;;;;;;;26.10;40.50;;;;;;5070440;28;1160;-44
2022/04/25 10:52:31;;;;;;;;;;;26.10;40.50;;;;;;5069154;28;944;-44
2022/04/25 10:55:11;;;;;;;;;;;26.10;40.40;;;;;;5069440;28;940;-44
2022/04/25 10:57:37;;;;;;;;;;;26.10;40.40;;;;;;5067145;28;1901;-44
2022/04/25 11:00:25;;;;;;;;;;;26.10;40.40;;;;;;5068339;28;948;-44
2022/04/25 11:03:03;;;;;;;;;;;26.10;40.50;;;;;;5066603;28;1135;-44
2022/04/25 11:05:35;;;;;;;;;;;26.10;40.50;;;;;;5068458;28;885;-44
2022/04/25 11:08:16;;;;;;;;;;;26.10;40.50;;;;;;5067239;28;957;-43
2022/04/25 11:10:44;;;;;;;;;;;26.10;40.50;;;;;;5065058;28;1031;-43
2022/04/25 11:13:12;;;;;;;;;;;26.10;40.50;;;;;;5065413;28;892;-42
2022/04/25 11:15:40;;;;;;;;;;;26.10;40.50;;;;;;5064131;28;1307;-38
2022/04/25 11:18:28;;;;;;;;;;;26.10;40.50;;;;;;5065293;28;1902;-44
2022/04/25 11:20:56;;;;;;;;;;;26.10;40.50;;;;;;5063887;28;972;-46
2022/04/25 11:23:26;;;;;;;;;;;26.20;40.50;;;;;;5064995;28;991;-45
2022/04/25 11:25:55;;;;;;;;;;;26.10;40.60;;;;;;5067651;28;1338;-43
2022/04/25 11:28:22;;;;;;;;;;;26.10;40.70;;;;;;5067238;28;882;-43
2022/04/25 11:31:04;;;;;;;;;;;26.10;40.60;;;;;;5066916;28;905;-39
2022/04/25 11:33:40;;;;;;;;;;;26.10;40.50;;;;;;5055763;28;1659;-42
2022/04/25 11:36:10;;;;;;;;;;;26.10;40.50;;;;;;5069018;28;984;-40
2022/04/25 11:41:26;;;;;;;;;;;26.10;40.50;;;;;;4993261;28;1311;-45
2022/04/25 11:43:53;;;;;;;;;;;26.10;40.50;;;;;;5064731;28;868;-45
2022/04/25 11:46:20;;;;;;;;;;;26.20;40.60;;;;;;5065210;28;1021;-43
2022/04/25 11:48:48;;;;;;;;;;;26.20;40.60;;;;;;5068898;28;931;-45
2022/04/25 11:51:24;;;;;;;;;;;26.10;40.50;;;;;;5068686;28;870;-46
2022/04/25 11:53:52;;;;;;;;;;;26.20;40.50;;;;;;5066381;28;989;-45
2022/04/25 11:56:18;;;;;;;;;;;26.20;40.60;;;;;;5068219;28;888;-45
2022/04/25 11:58:45;;;;;;;;;;;26.10;40.50;;;;;;5067043;28;1953;-45
2022/04/25 12:01:12;;;;;;;;;;;26.20;40.50;;;;;;5067838;28;998;-45
2022/04/25 12:03:39;;;;;;;;;;;26.20;40.50;;;;;;5068581;28;911;-46
2022/04/25 12:06:09;;;;;;;;;;;26.20;40.50;;;;;;5066771;28;889;-47
2022/04/25 12:16:51;;;;;;;;;;;26.20;40.50;;;;;;5069039;28;614;-46
2022/04/25 12:19:18;;;;;;;;;;;26.20;40.60;;;;;;5070349;28;1910;-38
2022/04/25 12:21:47;;;;;;;;;;;26.20;40.60;;;;;;5068648;28;941;-38
2022/04/25 12:24:18;;;;;;;;;;;26.20;40.60;;;;;;5069173;28;992;-46
2022/04/25 12:26:45;;;;;;;;;;;26.20;40.50;;;;;;5066195;28;845;-44
2022/04/25 12:29:12;;;;;;;;;;;26.20;40.60;;;;;;5067334;28;933;-45
2022/04/25 12:31:45;;;;;;;;;;;26.20;40.60;;;;;;5068510;28;988;-45
2022/04/25 12:34:13;;;;;;;;;;;26.20;40.60;;;;;;5069538;28;921;-45
2022/04/25 12:36:52;;;;;;;;;;;26.20;40.50;;;;;;5069701;28;850;-44
2022/04/25 12:39:20;;;;;;;;;;;26.20;40.50;;;;;;5068318;28;1898;-38
2022/04/25 12:41:53;;;;;;;;;;;26.20;40.60;;;;;;5067983;28;988;-45
2022/04/25 12:44:20;;;;;;;;;;;26.20;40.60;;;;;;5069354;28;921;-45
2022/04/25 12:46:48;;;;;;;;;;;26.20;40.50;;;;;;5069729;28;993;-45
2022/04/25 12:49:15;;;;;;;;;;;26.20;40.50;;;;;;5069575;28;993;-46
2022/04/25 12:51:46;;;;;;;;;;;26.20;40.50;;;;;;5066873;28;988;-43
2022/04/25 12:54:22;;;;;;;;;;;26.20;40.50;;;;;;5066151;28;1025;-44
2022/04/25 12:56:49;;;;;;;;;;;26.20;40.60;;;;;;5063243;28;913;-45
2022/04/25 12:59:27;;;;;;;;;;;26.30;40.60;;;;;;5064640;28;1979;-43
2022/04/25 13:02:01;;;;;;;;;;;26.30;40.60;;;;;;5063862;28;835;-38
2022/04/25 13:04:28;;;;;;;;;;;26.30;41.70;;;;;;5066285;28;1175;-42
2022/04/25 13:06:55;;;;;;;;;;;26.30;40.50;;;;;;5064547;28;1857;-43
2022/04/25 13:09:23;;;;;;;;;;;26.20;40.50;;;;;;5065419;28;892;-45
2022/04/25 13:11:50;;;;;;;;;;;26.20;40.50;;;;;;5065095;28;830;-44
2022/04/25 13:14:17;;;;;;;;;;;26.20;40.50;;;;;;5064541;28;1023;-44
2022/04/25 13:16:43;;;;;;;;;;;26.20;40.40;;;;;;5064999;28;917;-45
2022/04/25 13:19:10;;;;;;;;;;;26.30;40.60;;;;;;5062852;28;1905;-44
2022/04/25 13:21:40;;;;;;;;;;;26.30;40.50;;;;;;5062814;28;936;-44
2022/04/25 13:24:07;;;;;;;;;;;26.30;40.50;;;;;;5065162;28;1003;-45
2022/04/25 13:26:35;;;;;;;;;;;26.30;40.40;;;;;;5065654;28;1012;-41
2022/04/25 13:29:02;;;;;;;;;;;26.30;40.40;;;;;;5065625;28;936;-39
2022/04/25 13:31:29;;;;;;;;;;;26.30;40.50;;;;;;5064124;28;861;-42
2022/04/25 13:33:57;;;;;;;;;;;26.30;40.50;;;;;;5066146;28;986;-42
2022/04/25 13:36:24;;;;;;;;;;;26.20;40.40;;;;;;5067470;28;945;-42
2022/04/25 13:38:51;;;;;;;;;;;26.30;40.50;;;;;;5066741;28;1909;-42
2022/04/25 13:41:18;;;;;;;;;;;26.30;40.50;;;;;;5065819;28;1142;-39
2022/04/25 13:43:49;;;;;;;;;;;26.30;40.40;;;;;;5063623;28;999;-43
2022/04/25 13:46:16;;;;;;;;;;;26.30;40.30;;;;;;5064571;28;978;-45
2022/04/25 13:48:43;;;;;;;;;;;26.30;40.30;;;;;;5064140;28;979;-39
2022/04/25 13:51:10;;;;;;;;;;;26.30;40.20;;;;;;5065828;28;1023;-42
2022/04/25 13:53:38;;;;;;;;;;;26.30;40.30;;;;;;5065091;28;991;-45
2022/04/25 13:56:06;;;;;;;;;;;26.30;40.30;;;;;;5064788;28;1117;-43
2022/04/25 13:58:33;;;;;;;;;;;26.30;40.40;;;;;;5063928;28;1910;-43
2022/04/25 14:01:03;;;;;;;;;;;26.40;40.40;;;;;;5064258;28;854;-45
2022/04/25 14:03:29;;;;;;;;;;;26.30;40.30;;;;;;5064750;28;896;-44
2022/04/25 14:05:56;;;;;;;;;;;26.40;40.40;;;;;;5063381;28;885;-44
2022/04/25 14:08:24;;;;;;;;;;;26.40;40.40;;;;;;5064575;28;925;-44
2022/04/25 14:10:52;;;;;;;;;;;26.40;40.40;;;;;;5063510;28;933;-44
2022/04/25 14:13:20;;;;;;;;;;;26.40;40.30;;;;;;5065219;28;892;-44
2022/04/25 14:15:46;;;;;;;;;;;26.30;40.40;;;;;;5063533;28;1000;-43
2022/04/25 14:18:15;;;;;;;;;;;26.30;40.40;;;;;;5063561;28;1985;-44
2022/04/25 14:20:42;;;;;;;;;;;26.30;40.50;;;;;;5062958;28;987;-44
2022/04/25 14:23:09;;;;;;;;;;;26.40;40.40;;;;;;5061964;28;869;-43
2022/04/25 14:25:36;;;;;;;;;;;26.30;40.30;;;;;;5063071;28;924;-43
2022/04/25 14:28:04;;;;;;;;;;;26.30;40.50;;;;;;5065809;28;956;-44
2022/04/25 14:30:31;;;;;;;;;;;26.30;40.60;;;;;;5065107;28;960;-46
2022/04/25 14:32:58;;;;;;;;;;;26.30;40.70;;;;;;5065315;28;932;-42
2022/04/25 14:35:26;;;;;;;;;;;26.30;40.70;;;;;;5064958;28;842;-43
2022/04/25 14:37:53;;;;;;;;;;;26.30;40.80;;;;;;5062381;28;1992;-44
2022/04/25 14:40:20;;;;;;;;;;;26.30;40.90;;;;;;5063554;28;1037;-45
2022/04/25 14:42:47;;;;;;;;;;;26.30;41.00;;;;;;5062465;28;1019;-45
2022/04/25 14:45:15;;;;;;;;;;;26.30;41.10;;;;;;5064252;28;956;-44
2022/04/25 14:47:43;;;;;;;;;;;26.40;41.10;;;;;;5063098;28;1020;-45
2022/04/25 14:55:40;;;;;;;;;;;26.30;41.10;;;;;;5063288;28;660;-41
2022/04/25 14:58:07;;;;;;;;;;;26.30;41.20;;;;;;5065344;28;1906;-42
2022/04/25 15:00:34;;;;;;;;;;;26.30;41.20;;;;;;5065121;28;924;-44
2022/04/25 15:03:01;;;;;;;;;;;26.30;41.20;;;;;;5063382;28;884;-42
2022/04/25 15:05:28;;;;;;;;;;;26.30;41.20;;;;;;5064060;28;944;-43
2022/04/25 15:07:56;;;;;;;;;;;26.30;41.30;;;;;;5065209;28;1021;-43
2022/04/25 15:10:23;;;;;;;;;;;26.30;41.20;;;;;;5065762;28;936;-44
2022/04/25 15:12:49;;;;;;;;;;;26.30;41.20;;;;;;5065174;28;1016;-45
2022/04/25 15:15:16;;;;;;;;;;;26.30;41.20;;;;;;5064307;28;930;-46
2022/04/25 15:17:43;;;;;;;;;;;26.30;41.30;;;;;;5063876;28;983;-45
2022/04/25 15:20:11;;;;;;;;;;;26.30;41.20;;;;;;5066101;28;1898;-45
2022/04/25 15:22:37;;;;;;;;;;;26.30;41.20;;;;;;5065197;28;858;-46
2022/04/25 15:25:06;;;;;;;;;;;26.30;41.10;;;;;;5071527;28;909;-43
2022/04/25 15:27:33;;;;;;;;;;;26.30;41.20;;;;;;5069410;28;915;-42
2022/04/25 15:30:00;;;;;;;;;;;26.20;41.20;;;;;;5069032;28;990;-44